Aplington, Iowa
Current Conditions -  °F | °C
As of 9:55 AM on Friday 28 Nov 2014 (Local Time) from KIFA Reporting Station
Haze Haze  
Wind Chill:   Ceiling: Unl
Heat Index: 19°   Visibility: 5mi
Dew Point: 15°   Wind: 10mph
Humidity: 83%   Direction: 130°SE
Pressure: 29.95"   Gusts: NA
Location:  42.58°N, 92.88°W
Report Text: KIFA 281555Z AUTO 13009KT 5SM BR CLR M07/M09 A2995 RMK AO2 T10711095
Loading
Personal Weather Stations






























Interactive Weather Map New forecast layout! Learn more

10-Day Weather Forecast

Advertisements
Track Severe Weather on mobile